地図

経路データ

SID SEASON NUMBER BASIN SUBBASIN NAME ISO_TIME NATURE LAT LON WMO_WIND WMO_PRES WMO_AGENCY TRACK_TYPE DIST2LAND LANDFALL IFLAG USA_AGENCY USA_ATCF_ID USA_LAT USA_LON USA_RECORD USA_STATUS USA_WIND USA_PRES USA_SSHS USA_R34_NE USA_R34_SE USA_R34_SW USA_R34_NW USA_R50_NE USA_R50_SE USA_R50_SW USA_R50_NW USA_R64_NE USA_R64_SE USA_R64_SW USA_R64_NW USA_POCI USA_ROCI USA_RMW USA_EYE TOKYO_LAT TOKYO_LON TOKYO_GRADE TOKYO_WIND TOKYO_PRES TOKYO_R50_DIR TOKYO_R50_LONG TOKYO_R50_SHORT TOKYO_R30_DIR TOKYO_R30_LONG TOKYO_R30_SHORT TOKYO_LAND CMA_LAT CMA_LON CMA_CAT CMA_WIND CMA_PRES HKO_LAT HKO_LON HKO_CAT HKO_WIND HKO_PRES NEWDELHI_LAT NEWDELHI_LON NEWDELHI_GRADE NEWDELHI_WIND NEWDELHI_PRES NEWDELHI_CI NEWDELHI_DP NEWDELHI_POCI REUNION_LAT REUNION_LON REUNION_TYPE REUNION_WIND REUNION_PRES REUNION_TNUM REUNION_CI REUNION_RMW REUNION_R34_NE REUNION_R34_SE REUNION_R34_SW REUNION_R34_NW REUNION_R50_NE REUNION_R50_SE REUNION_R50_SW REUNION_R50_NW REUNION_R64_NE REUNION_R64_SE REUNION_R64_SW REUNION_R64_NW BOM_LAT BOM_LON BOM_TYPE BOM_WIND BOM_PRES BOM_TNUM BOM_CI BOM_RMW BOM_R34_NE BOM_R34_SE BOM_R34_SW BOM_R34_NW BOM_R50_NE BOM_R50_SE BOM_R50_SW BOM_R50_NW BOM_R64_NE BOM_R64_SE BOM_R64_SW BOM_R64_NW BOM_ROCI BOM_POCI BOM_EYE BOM_POS_METHOD BOM_PRES_METHOD NADI_LAT NADI_LON NADI_CAT NADI_WIND NADI_PRES WELLINGTON_LAT WELLINGTON_LON WELLINGTON_WIND WELLINGTON_PRES DS824_LAT DS824_LON DS824_STAGE DS824_WIND DS824_PRES TD9636_LAT TD9636_LON TD9636_STAGE TD9636_WIND TD9636_PRES TD9635_LAT TD9635_LON TD9635_WIND TD9635_PRES TD9635_ROCI NEUMANN_LAT NEUMANN_LON NEUMANN_CLASS NEUMANN_WIND NEUMANN_PRES MLC_LAT MLC_LON MLC_CLASS MLC_WIND MLC_PRES USA_GUST BOM_GUST BOM_GUST_PER REUNION_GUST REUNION_GUST_PER USA_SEAHGT USA_SEARAD_NE USA_SEARAD_SE USA_SEARAD_SW USA_SEARAD_NW STORM_SPEED STORM_DIR
1925250N24143 1925 48 WP MM NOT_NAMED 1925-09-07 10:00:00 NR 23.7000 143.200 main 1288 1270 __________O___ -1 23.7000 143.200 3 8 17
1925250N24143 1925 48 WP MM NOT_NAMED 1925-09-07 12:00:00 NR 23.9481 143.282 main 1270 1230 __________P___ -1 23.9481 143.282 3 8 16
1925250N24143 1925 48 WP MM NOT_NAMED 1925-09-07 15:00:00 NR 24.3084 143.400 main 1230 1200 __________P___ -1 24.3084 143.400 3 7 16
1925250N24143 1925 48 WP MM NOT_NAMED 1925-09-07 18:00:00 NR 24.6384 143.503 main 1200 1171 __________P___ -1 24.6384 143.503 3 6 15
1925250N24143 1925 48 WP MM NOT_NAMED 1925-09-07 21:00:00 NR 24.9200 143.581 main 1171 1160 __________P___ -1 24.9200 143.581 3 6 14
1925250N24143 1925 48 WP MM NOT_NAMED 1925-09-07 22:00:00 NR 25.0000 143.600 main 1160 1149 __________O___ -1 25.0000 143.600 4 4 9
1925250N24143 1925 48 WP MM NOT_NAMED 1925-09-08 00:00:00 NR 25.1373 143.626 main 1149 1128 __________P___ -1 25.1373 143.626 4 4 7
1925250N24143 1925 48 WP MM NOT_NAMED 1925-09-08 03:00:00 NR 25.2991 143.639 main 1128 1117 __________P___ -1 25.2991 143.639 4 3 4
1925250N24143 1925 48 WP MM NOT_NAMED 1925-09-08 06:00:00 NR 25.4301 143.630 main 1117 1096 __________P___ -1 25.4301 143.630 4 3 358
1925250N24143 1925 48 WP MM NOT_NAMED 1925-09-08 09:00:00 NR 25.5553 143.608 main 1096 1096 __________P___ -1 25.5553 143.608 4 3 0
1925250N24143 1925 48 WP MM NOT_NAMED 1925-09-08 10:00:00 NR 25.6000 143.600 main 1096 1085 __________O___ -1 25.6000 143.600 4 3 357
1925250N24143 1925 48 WP MM NOT_NAMED 1925-09-08 12:00:00 NR 25.7031 143.594 main 1085 1064 __________P___ -1 25.7031 143.594 4 3 0
1925250N24143 1925 48 WP MM NOT_NAMED 1925-09-08 15:00:00 NR 25.8638 143.579 main 1064 1054 __________P___ -1 25.8638 143.579 4 3 355
1925250N24143 1925 48 WP MM NOT_NAMED 1925-09-08 18:00:00 NR 26.0375 143.554 main 1054 1029 __________P___ -1 26.0375 143.554 4 4 351
1925250N24143 1925 48 WP MM NOT_NAMED 1925-09-08 21:00:00 NR 26.2304 143.516 main 1029 1019 __________P___ -1 26.2304 143.516 4 4 348
1925250N24143 1925 48 WP MM NOT_NAMED 1925-09-08 22:00:00 NR 26.3000 143.500 main 1019 998 __________O___ -1 26.3000 143.500 4 5 352
1925250N24143 1925 48 WP MM NOT_NAMED 1925-09-09 00:00:00 NR 26.4521 143.477 main 998 973 __________P___ -1 26.4521 143.477 4 5 352
1925250N24143 1925 48 WP MM NOT_NAMED 1925-09-09 03:00:00 NR 26.6992 143.430 main 973 942 __________P___ -1 26.6992 143.430 4 5 348
1925250N24143 1925 48 WP MM NOT_NAMED 1925-09-09 06:00:00 NR 26.9581 143.358 main 942 914 __________P___ -1 26.9581 143.358 4 5 342
1925250N24143 1925 48 WP MM NOT_NAMED 1925-09-09 09:00:00 NR 27.2162 143.247 main 914 903 __________P___ -1 27.2162 143.247 4 6 337
1925250N24143 1925 48 WP MM NOT_NAMED 1925-09-09 10:00:00 NR 27.3000 143.200 main 903 879 __________O___ -1 27.3000 143.200 4 6 330
1925250N24143 1925 48 WP MM NOT_NAMED 1925-09-09 12:00:00 NR 27.4621 143.088 main 879 852 __________P___ -1 27.4621 143.088 4 6 324
1925250N24143 1925 48 WP MM NOT_NAMED 1925-09-09 15:00:00 NR 27.6935 142.882 main 852 821 __________P___ -1 27.6935 142.882 4 6 319
1925250N24143 1925 48 WP MM NOT_NAMED 1925-09-09 18:00:00 NR 27.9144 142.645 main 821 794 __________P___ -1 27.9144 142.645 4 6 315
1925250N24143 1925 48 WP MM NOT_NAMED 1925-09-09 21:00:00 NR 28.1291 142.388 main 794 781 __________P___ -1 28.1291 142.388 4 6 313
1925250N24143 1925 48 WP MM NOT_NAMED 1925-09-09 22:00:00 NR 28.2000 142.300 main 781 __________O___ -1 28.2000 142.300 4 6 313

デジタル台風データ・検索

IBTrACS Databaseについて

本データベースは、米国NOAAが公開する1842年以降の世界の熱帯低気圧のベストトラックデータアーカイブInternational Best Track Archive for Climate Stewardship (IBTrACS)を、ウェブで閲覧しやすい形式に変換したものです。

最終更新日:2021-12-03